sensor_id;sensor_type;location;lat;lon;timestamp;temperature;humidity
5901;DHT22;2976;49.764;9.796;2023-03-23T00:00:04;13.10;99.90
5901;DHT22;2976;49.764;9.796;2023-03-23T00:02:31;13.10;99.90
5901;DHT22;2976;49.764;9.796;2023-03-23T00:05:04;13.10;99.90
5901;DHT22;2976;49.764;9.796;2023-03-23T00:07:30;13.10;99.90
5901;DHT22;2976;49.764;9.796;2023-03-23T00:09:55;13.10;99.90
5901;DHT22;2976;49.764;9.796;2023-03-23T00:12:23;13.10;99.90
5901;DHT22;2976;49.764;9.796;2023-03-23T00:14:55;13.10;99.90
5901;DHT22;2976;49.764;9.796;2023-03-23T00:17:21;13.10;99.90
5901;DHT22;2976;49.764;9.796;2023-03-23T00:19:46;13.10;99.90
5901;DHT22;2976;49.764;9.796;2023-03-23T00:22:14;13.00;99.90
5901;DHT22;2976;49.764;9.796;2023-03-23T00:24:41;12.90;99.90
5901;DHT22;2976;49.764;9.796;2023-03-23T00:27:06;12.90;99.90
5901;DHT22;2976;49.764;9.796;2023-03-23T00:29:34;12.90;99.90
5901;DHT22;2976;49.764;9.796;2023-03-23T00:31:59;12.90;99.90
5901;DHT22;2976;49.764;9.796;2023-03-23T00:34:25;12.90;99.90
5901;DHT22;2976;49.764;9.796;2023-03-23T00:36:53;12.80;99.90
5901;DHT22;2976;49.764;9.796;2023-03-23T00:39:22;12.80;99.90
5901;DHT22;2976;49.764;9.796;2023-03-23T00:41:49;12.80;99.90
5901;DHT22;2976;49.764;9.796;2023-03-23T00:44:15;12.80;99.90
5901;DHT22;2976;49.764;9.796;2023-03-23T00:46:46;12.80;99.90
5901;DHT22;2976;49.764;9.796;2023-03-23T00:49:14;12.80;99.90
5901;DHT22;2976;49.764;9.796;2023-03-23T00:51:41;12.80;99.90
5901;DHT22;2976;49.764;9.796;2023-03-23T00:54:07;12.70;99.90
5901;DHT22;2976;49.764;9.796;2023-03-23T00:56:33;12.70;99.90
5901;DHT22;2976;49.764;9.796;2023-03-23T00:58:59;12.70;99.90
5901;DHT22;2976;49.764;9.796;2023-03-23T01:01:24;12.70;99.90
5901;DHT22;2976;49.764;9.796;2023-03-23T01:03:50;12.80;99.90
5901;DHT22;2976;49.764;9.796;2023-03-23T01:06:15;12.70;99.90
5901;DHT22;2976;49.764;9.796;2023-03-23T01:08:42;12.70;99.90
5901;DHT22;2976;49.764;9.796;2023-03-23T01:11:13;12.70;99.90
5901;DHT22;2976;49.764;9.796;2023-03-23T01:13:39;12.70;99.90
5901;DHT22;2976;49.764;9.796;2023-03-23T01:16:06;12.70;99.90
5901;DHT22;2976;49.764;9.796;2023-03-23T01:18:31;12.80;99.90
5901;DHT22;2976;49.764;9.796;2023-03-23T01:20:57;12.80;99.90
5901;DHT22;2976;49.764;9.796;2023-03-23T01:23:23;12.80;99.90
5901;DHT22;2976;49.764;9.796;2023-03-23T01:25:48;12.80;99.90
5901;DHT22;2976;49.764;9.796;2023-03-23T01:28:14;12.70;99.90
5901;DHT22;2976;49.764;9.796;2023-03-23T01:30:40;12.70;99.90
5901;DHT22;2976;49.764;9.796;2023-03-23T01:33:06;12.70;99.90
5901;DHT22;2976;49.764;9.796;2023-03-23T01:35:32;12.70;99.90
5901;DHT22;2976;49.764;9.796;2023-03-23T01:37:57;12.70;99.90
5901;DHT22;2976;49.764;9.796;2023-03-23T01:40:23;12.70;99.90
5901;DHT22;2976;49.764;9.796;2023-03-23T01:42:51;12.60;99.90
5901;DHT22;2976;49.764;9.796;2023-03-23T01:47:50;12.60;99.90
5901;DHT22;2976;49.764;9.796;2023-03-23T01:50:18;12.50;99.90
5901;DHT22;2976;49.764;9.796;2023-03-23T01:52:45;12.50;99.90
5901;DHT22;2976;49.764;9.796;2023-03-23T01:55:11;12.50;99.90
5901;DHT22;2976;49.764;9.796;2023-03-23T01:57:37;12.50;99.90
5901;DHT22;2976;49.764;9.796;2023-03-23T02:00:06;12.40;99.90
5901;DHT22;2976;49.764;9.796;2023-03-23T02:02:37;12.50;99.90
5901;DHT22;2976;49.764;9.796;2023-03-23T02:05:08;12.50;99.90
5901;DHT22;2976;49.764;9.796;2023-03-23T02:07:35;12.50;99.90
5901;DHT22;2976;49.764;9.796;2023-03-23T02:10:02;12.50;99.90
5901;DHT22;2976;49.764;9.796;2023-03-23T02:12:27;12.50;99.90
5901;DHT22;2976;49.764;9.796;2023-03-23T02:14:53;12.60;99.90
5901;DHT22;2976;49.764;9.796;2023-03-23T02:17:39;12.50;99.90
5901;DHT22;2976;49.764;9.796;2023-03-23T02:20:40;12.50;99.90
5901;DHT22;2976;49.764;9.796;2023-03-23T02:23:07;12.50;99.90
5901;DHT22;2976;49.764;9.796;2023-03-23T02:33:44;12.30;99.90
5901;DHT22;2976;49.764;9.796;2023-03-23T02:36:35;12.30;99.90
5901;DHT22;2976;49.764;9.796;2023-03-23T02:39:31;12.30;99.90
5901;DHT22;2976;49.764;9.796;2023-03-23T02:42:05;12.30;99.90
5901;DHT22;2976;49.764;9.796;2023-03-23T02:44:32;12.30;99.90
5901;DHT22;2976;49.764;9.796;2023-03-23T02:47:00;12.20;99.90
5901;DHT22;2976;49.764;9.796;2023-03-23T02:49:29;12.10;99.90
5901;DHT22;2976;49.764;9.796;2023-03-23T02:51:56;12.10;99.90
5901;DHT22;2976;49.764;9.796;2023-03-23T02:54:24;12.10;99.90
5901;DHT22;2976;49.764;9.796;2023-03-23T02:56:52;12.00;99.90
5901;DHT22;2976;49.764;9.796;2023-03-23T02:59:18;11.90;99.90
5901;DHT22;2976;49.764;9.796;2023-03-23T03:04:18;11.70;99.90
5901;DHT22;2976;49.764;9.796;2023-03-23T03:07:22;11.60;99.90
5901;DHT22;2976;49.764;9.796;2023-03-23T03:09:59;11.50;99.90
5901;DHT22;2976;49.764;9.796;2023-03-23T03:17:41;11.60;99.90
5901;DHT22;2976;49.764;9.796;2023-03-23T03:20:11;11.60;99.90
5901;DHT22;2976;49.764;9.796;2023-03-23T03:22:40;11.70;99.90
5901;DHT22;2976;49.764;9.796;2023-03-23T03:25:10;11.70;99.90
5901;DHT22;2976;49.764;9.796;2023-03-23T03:27:41;11.70;99.90
5901;DHT22;2976;49.764;9.796;2023-03-23T03:30:11;11.60;99.90
5901;DHT22;2976;49.764;9.796;2023-03-23T03:32:44;11.60;99.90
5901;DHT22;2976;49.764;9.796;2023-03-23T03:35:12;11.60;99.90
5901;DHT22;2976;49.764;9.796;2023-03-23T03:37:38;11.60;99.90
5901;DHT22;2976;49.764;9.796;2023-03-23T03:40:09;11.60;99.90
5901;DHT22;2976;49.764;9.796;2023-03-23T03:42:41;11.60;99.90
5901;DHT22;2976;49.764;9.796;2023-03-23T03:45:14;11.60;99.90
5901;DHT22;2976;49.764;9.796;2023-03-23T03:47:40;11.50;99.90
5901;DHT22;2976;49.764;9.796;2023-03-23T03:50:06;11.50;99.90
5901;DHT22;2976;49.764;9.796;2023-03-23T03:52:32;11.50;99.90
5901;DHT22;2976;49.764;9.796;2023-03-23T03:54:58;11.60;99.90
5901;DHT22;2976;49.764;9.796;2023-03-23T03:57:24;11.50;99.90
5901;DHT22;2976;49.764;9.796;2023-03-23T03:59:50;11.50;99.90
5901;DHT22;2976;49.764;9.796;2023-03-23T04:02:16;11.50;99.90
5901;DHT22;2976;49.764;9.796;2023-03-23T04:04:46;11.50;99.90
5901;DHT22;2976;49.764;9.796;2023-03-23T04:07:12;11.60;99.90
5901;DHT22;2976;49.764;9.796;2023-03-23T04:09:39;11.60;99.90
5901;DHT22;2976;49.764;9.796;2023-03-23T04:12:05;11.60;99.90
5901;DHT22;2976;49.764;9.796;2023-03-23T04:14:31;11.60;99.90
5901;DHT22;2976;49.764;9.796;2023-03-23T04:16:56;11.60;99.90
5901;DHT22;2976;49.764;9.796;2023-03-23T04:19:26;11.60;99.90
5901;DHT22;2976;49.764;9.796;2023-03-23T04:21:54;11.50;99.90
5901;DHT22;2976;49.764;9.796;2023-03-23T04:24:20;11.50;99.90
5901;DHT22;2976;49.764;9.796;2023-03-23T04:26:47;11.50;99.90
5901;DHT22;2976;49.764;9.796;2023-03-23T04:29:12;11.60;99.90
5901;DHT22;2976;49.764;9.796;2023-03-23T04:31:38;11.70;99.90
5901;DHT22;2976;49.764;9.796;2023-03-23T04:34:05;11.70;99.90
5901;DHT22;2976;49.764;9.796;2023-03-23T04:36:31;11.80;99.90
5901;DHT22;2976;49.764;9.796;2023-03-23T04:38:59;11.70;99.90
5901;DHT22;2976;49.764;9.796;2023-03-23T04:41:26;11.70;99.90
5901;DHT22;2976;49.764;9.796;2023-03-23T04:43:52;11.70;99.90
5901;DHT22;2976;49.764;9.796;2023-03-23T04:46:19;11.70;99.90
5901;DHT22;2976;49.764;9.796;2023-03-23T04:48:46;11.60;99.90
5901;DHT22;2976;49.764;9.796;2023-03-23T04:51:12;11.70;99.90
5901;DHT22;2976;49.764;9.796;2023-03-23T04:53:38;11.60;99.90
5901;DHT22;2976;49.764;9.796;2023-03-23T04:56:04;11.60;99.90
5901;DHT22;2976;49.764;9.796;2023-03-23T04:58:29;11.60;99.90
5901;DHT22;2976;49.764;9.796;2023-03-23T05:00:59;11.50;99.90
5901;DHT22;2976;49.764;9.796;2023-03-23T05:03:25;11.50;99.90
5901;DHT22;2976;49.764;9.796;2023-03-23T05:05:52;11.50;99.90
5901;DHT22;2976;49.764;9.796;2023-03-23T05:08:19;11.50;99.90
5901;DHT22;2976;49.764;9.796;2023-03-23T05:10:53;11.50;99.90
5901;DHT22;2976;49.764;9.796;2023-03-23T05:13:19;11.50;99.90
5901;DHT22;2976;49.764;9.796;2023-03-23T05:15:45;11.50;99.90
5901;DHT22;2976;49.764;9.796;2023-03-23T05:18:11;11.50;99.90
5901;DHT22;2976;49.764;9.796;2023-03-23T05:20:37;11.50;99.90
5901;DHT22;2976;49.764;9.796;2023-03-23T05:23:03;11.50;99.90
5901;DHT22;2976;49.764;9.796;2023-03-23T05:25:28;11.60;99.90
5901;DHT22;2976;49.764;9.796;2023-03-23T05:27:54;11.70;99.90
5901;DHT22;2976;49.764;9.796;2023-03-23T05:30:21;11.60;99.90
5901;DHT22;2976;49.764;9.796;2023-03-23T05:32:47;11.60;99.90
5901;DHT22;2976;49.764;9.796;2023-03-23T05:35:16;11.60;99.90
5901;DHT22;2976;49.764;9.796;2023-03-23T05:37:44;11.50;99.90
5901;DHT22;2976;49.764;9.796;2023-03-23T05:40:12;11.60;99.90
5901;DHT22;2976;49.764;9.796;2023-03-23T05:42:39;11.50;99.90
5901;DHT22;2976;49.764;9.796;2023-03-23T05:45:09;11.40;99.90
5901;DHT22;2976;49.764;9.796;2023-03-23T05:47:36;11.50;99.90
5901;DHT22;2976;49.764;9.796;2023-03-23T05:50:02;11.50;99.90
5901;DHT22;2976;49.764;9.796;2023-03-23T05:52:27;11.40;99.90
5901;DHT22;2976;49.764;9.796;2023-03-23T05:54:53;11.50;99.90
5901;DHT22;2976;49.764;9.796;2023-03-23T05:57:19;11.60;99.90
5901;DHT22;2976;49.764;9.796;2023-03-23T05:59:47;11.70;99.90
5901;DHT22;2976;49.764;9.796;2023-03-23T06:02:13;11.60;99.90
5901;DHT22;2976;49.764;9.796;2023-03-23T06:04:39;11.60;99.90
5901;DHT22;2976;49.764;9.796;2023-03-23T06:07:06;11.70;99.90
5901;DHT22;2976;49.764;9.796;2023-03-23T06:09:32;11.70;99.90
5901;DHT22;2976;49.764;9.796;2023-03-23T06:11:58;11.80;99.90
5901;DHT22;2976;49.764;9.796;2023-03-23T06:14:23;11.80;99.90
5901;DHT22;2976;49.764;9.796;2023-03-23T06:16:49;11.80;99.90
5901;DHT22;2976;49.764;9.796;2023-03-23T06:19:14;11.90;99.90
5901;DHT22;2976;49.764;9.796;2023-03-23T06:21:41;11.90;99.90
5901;DHT22;2976;49.764;9.796;2023-03-23T06:24:07;11.90;99.90
5901;DHT22;2976;49.764;9.796;2023-03-23T06:26:38;11.80;99.90
5901;DHT22;2976;49.764;9.796;2023-03-23T06:29:04;11.90;99.90
5901;DHT22;2976;49.764;9.796;2023-03-23T06:31:39;11.80;99.90
5901;DHT22;2976;49.764;9.796;2023-03-23T06:34:05;11.80;99.90
5901;DHT22;2976;49.764;9.796;2023-03-23T06:36:31;11.80;99.90
5901;DHT22;2976;49.764;9.796;2023-03-23T06:38:57;11.80;99.90
5901;DHT22;2976;49.764;9.796;2023-03-23T06:41:22;11.90;99.90
5901;DHT22;2976;49.764;9.796;2023-03-23T06:43:48;11.90;99.90
5901;DHT22;2976;49.764;9.796;2023-03-23T06:46:13;12.00;99.90
5901;DHT22;2976;49.764;9.796;2023-03-23T06:48:39;12.00;99.90
5901;DHT22;2976;49.764;9.796;2023-03-23T06:51:05;12.10;99.90
5901;DHT22;2976;49.764;9.796;2023-03-23T06:53:30;12.20;99.90
5901;DHT22;2976;49.764;9.796;2023-03-23T06:55:56;12.20;99.90
5901;DHT22;2976;49.764;9.796;2023-03-23T06:58:22;12.30;99.90
5901;DHT22;2976;49.764;9.796;2023-03-23T07:00:53;12.30;99.90
5901;DHT22;2976;49.764;9.796;2023-03-23T07:03:18;12.40;99.90
5901;DHT22;2976;49.764;9.796;2023-03-23T07:05:46;12.50;99.90
5901;DHT22;2976;49.764;9.796;2023-03-23T07:08:12;12.60;99.90
5901;DHT22;2976;49.764;9.796;2023-03-23T07:10:37;12.60;99.90
5901;DHT22;2976;49.764;9.796;2023-03-23T07:13:03;12.70;99.90
5901;DHT22;2976;49.764;9.796;2023-03-23T07:15:28;12.70;99.90
5901;DHT22;2976;49.764;9.796;2023-03-23T07:17:54;12.80;99.90
5901;DHT22;2976;49.764;9.796;2023-03-23T07:20:20;12.70;99.90
5901;DHT22;2976;49.764;9.796;2023-03-23T07:22:47;12.70;99.90
5901;DHT22;2976;49.764;9.796;2023-03-23T07:25:13;12.70;99.90
5901;DHT22;2976;49.764;9.796;2023-03-23T07:27:38;12.60;99.90
5901;DHT22;2976;49.764;9.796;2023-03-23T07:30:05;12.60;99.90
5901;DHT22;2976;49.764;9.796;2023-03-23T07:32:30;12.60;99.90
5901;DHT22;2976;49.764;9.796;2023-03-23T07:34:56;12.70;99.90
5901;DHT22;2976;49.764;9.796;2023-03-23T07:37:22;12.70;99.90
5901;DHT22;2976;49.764;9.796;2023-03-23T07:39:48;12.70;99.90
5901;DHT22;2976;49.764;9.796;2023-03-23T07:42:13;12.70;99.90
5901;DHT22;2976;49.764;9.796;2023-03-23T07:44:39;12.80;99.90
5901;DHT22;2976;49.764;9.796;2023-03-23T07:47:04;12.80;99.90
5901;DHT22;2976;49.764;9.796;2023-03-23T07:49:30;12.80;99.90
5901;DHT22;2976;49.764;9.796;2023-03-23T07:51:56;12.90;99.90
5901;DHT22;2976;49.764;9.796;2023-03-23T07:54:23;12.80;99.90
5901;DHT22;2976;49.764;9.796;2023-03-23T07:56:49;12.80;99.90
5901;DHT22;2976;49.764;9.796;2023-03-23T07:59:14;12.80;99.90
5901;DHT22;2976;49.764;9.796;2023-03-23T08:01:40;12.90;99.90
5901;DHT22;2976;49.764;9.796;2023-03-23T08:04:06;12.80;99.90
5901;DHT22;2976;49.764;9.796;2023-03-23T08:06:33;12.80;99.90
5901;DHT22;2976;49.764;9.796;2023-03-23T08:08:59;12.90;99.90
5901;DHT22;2976;49.764;9.796;2023-03-23T08:11:26;12.90;99.90
5901;DHT22;2976;49.764;9.796;2023-03-23T08:13:52;12.90;99.90
5901;DHT22;2976;49.764;9.796;2023-03-23T08:16:18;12.80;99.90
5901;DHT22;2976;49.764;9.796;2023-03-23T08:18:45;12.80;99.90
5901;DHT22;2976;49.764;9.796;2023-03-23T08:21:11;12.90;99.90
5901;DHT22;2976;49.764;9.796;2023-03-23T08:23:38;12.90;99.90
5901;DHT22;2976;49.764;9.796;2023-03-23T08:26:06;12.80;99.90
5901;DHT22;2976;49.764;9.796;2023-03-23T08:28:33;12.80;99.90
5901;DHT22;2976;49.764;9.796;2023-03-23T08:30:59;12.70;99.90
5901;DHT22;2976;49.764;9.796;2023-03-23T08:33:24;12.80;99.90
5901;DHT22;2976;49.764;9.796;2023-03-23T08:35:57;12.80;99.90
5901;DHT22;2976;49.764;9.796;2023-03-23T08:38:24;12.80;99.90
5901;DHT22;2976;49.764;9.796;2023-03-23T08:40:50;12.90;99.90
5901;DHT22;2976;49.764;9.796;2023-03-23T08:43:17;12.90;99.90
5901;DHT22;2976;49.764;9.796;2023-03-23T08:45:43;13.00;99.90
5901;DHT22;2976;49.764;9.796;2023-03-23T08:48:08;13.00;99.90
5901;DHT22;2976;49.764;9.796;2023-03-23T08:50:34;13.10;99.90
5901;DHT22;2976;49.764;9.796;2023-03-23T08:53:01;13.30;99.90
5901;DHT22;2976;49.764;9.796;2023-03-23T08:55:28;13.30;99.90
5901;DHT22;2976;49.764;9.796;2023-03-23T08:57:54;13.20;99.90
5901;DHT22;2976;49.764;9.796;2023-03-23T09:00:21;13.20;99.90
5901;DHT22;2976;49.764;9.796;2023-03-23T09:02:51;13.30;99.90
5901;DHT22;2976;49.764;9.796;2023-03-23T09:05:20;13.30;99.90
5901;DHT22;2976;49.764;9.796;2023-03-23T09:07:48;13.40;99.90
5901;DHT22;2976;49.764;9.796;2023-03-23T09:10:14;13.30;99.90
5901;DHT22;2976;49.764;9.796;2023-03-23T09:12:42;13.40;99.90
5901;DHT22;2976;49.764;9.796;2023-03-23T09:15:09;13.30;99.90
5901;DHT22;2976;49.764;9.796;2023-03-23T09:17:37;13.20;99.90
5901;DHT22;2976;49.764;9.796;2023-03-23T09:20:04;13.20;99.90
5901;DHT22;2976;49.764;9.796;2023-03-23T09:22:38;13.20;99.90
5901;DHT22;2976;49.764;9.796;2023-03-23T09:25:05;13.30;99.90
5901;DHT22;2976;49.764;9.796;2023-03-23T09:27:31;13.70;99.90
5901;DHT22;2976;49.764;9.796;2023-03-23T09:29:57;13.90;99.90
5901;DHT22;2976;49.764;9.796;2023-03-23T09:32:22;13.90;99.90
5901;DHT22;2976;49.764;9.796;2023-03-23T09:34:48;13.90;99.90
5901;DHT22;2976;49.764;9.796;2023-03-23T09:37:13;13.80;99.90
5901;DHT22;2976;49.764;9.796;2023-03-23T09:39:39;13.80;99.90
5901;DHT22;2976;49.764;9.796;2023-03-23T09:48:05;13.80;99.90
5901;DHT22;2976;49.764;9.796;2023-03-23T09:50:35;13.80;99.90
5901;DHT22;2976;49.764;9.796;2023-03-23T09:53:13;13.70;99.90
5901;DHT22;2976;49.764;9.796;2023-03-23T09:55:42;13.70;99.90
5901;DHT22;2976;49.764;9.796;2023-03-23T09:58:26;13.70;99.90
5901;DHT22;2976;49.764;9.796;2023-03-23T10:01:08;13.60;99.90
5901;DHT22;2976;49.764;9.796;2023-03-23T10:03:40;13.70;99.90
5901;DHT22;2976;49.764;9.796;2023-03-23T10:06:14;13.60;99.90
5901;DHT22;2976;49.764;9.796;2023-03-23T10:08:48;13.60;99.90
5901;DHT22;2976;49.764;9.796;2023-03-23T10:16:40;13.60;99.90
5901;DHT22;2976;49.764;9.796;2023-03-23T10:22:10;13.60;99.90
5901;DHT22;2976;49.764;9.796;2023-03-23T10:24:57;13.40;99.90
5901;DHT22;2976;49.764;9.796;2023-03-23T10:27:45;13.50;99.90
5901;DHT22;2976;49.764;9.796;2023-03-23T10:30:18;13.70;99.90
5901;DHT22;2976;49.764;9.796;2023-03-23T10:32:55;13.60;99.90
5901;DHT22;2976;49.764;9.796;2023-03-23T10:35:28;13.80;99.90
5901;DHT22;2976;49.764;9.796;2023-03-23T10:38:09;13.90;99.90
5901;DHT22;2976;49.764;9.796;2023-03-23T10:40:53;14.10;99.90
5901;DHT22;2976;49.764;9.796;2023-03-23T10:43:20;14.20;99.90
5901;DHT22;2976;49.764;9.796;2023-03-23T10:46:01;14.30;99.90
5901;DHT22;2976;49.764;9.796;2023-03-23T10:48:35;14.30;99.90
5901;DHT22;2976;49.764;9.796;2023-03-23T10:51:03;14.40;99.90
5901;DHT22;2976;49.764;9.796;2023-03-23T10:53:36;14.50;99.90
5901;DHT22;2976;49.764;9.796;2023-03-23T10:56:03;14.50;99.90
5901;DHT22;2976;49.764;9.796;2023-03-23T10:58:31;14.70;99.90
5901;DHT22;2976;49.764;9.796;2023-03-23T11:00:59;14.90;99.90
5901;DHT22;2976;49.764;9.796;2023-03-23T11:03:38;14.70;99.90
5901;DHT22;2976;49.764;9.796;2023-03-23T11:06:09;14.50;99.90
5901;DHT22;2976;49.764;9.796;2023-03-23T11:08:46;14.60;99.90
5901;DHT22;2976;49.764;9.796;2023-03-23T11:11:19;14.70;99.90
5901;DHT22;2976;49.764;9.796;2023-03-23T11:13:49;14.70;99.90
5901;DHT22;2976;49.764;9.796;2023-03-23T11:16:24;14.90;99.90
5901;DHT22;2976;49.764;9.796;2023-03-23T11:18:50;14.90;99.90
5901;DHT22;2976;49.764;9.796;2023-03-23T11:21:17;14.80;99.90
5901;DHT22;2976;49.764;9.796;2023-03-23T11:23:59;14.60;99.90
5901;DHT22;2976;49.764;9.796;2023-03-23T11:26:30;14.50;99.90
5901;DHT22;2976;49.764;9.796;2023-03-23T11:29:04;14.50;99.90
5901;DHT22;2976;49.764;9.796;2023-03-23T11:31:39;14.40;99.90
5901;DHT22;2976;49.764;9.796;2023-03-23T11:34:24;14.60;99.90
5901;DHT22;2976;49.764;9.796;2023-03-23T11:36:53;14.70;99.90
5901;DHT22;2976;49.764;9.796;2023-03-23T11:39:34;14.60;99.90
5901;DHT22;2976;49.764;9.796;2023-03-23T11:42:20;14.70;99.90
5901;DHT22;2976;49.764;9.796;2023-03-23T11:44:46;14.50;99.90
5901;DHT22;2976;49.764;9.796;2023-03-23T11:47:29;14.30;99.90
5901;DHT22;2976;49.764;9.796;2023-03-23T11:50:09;14.20;99.90
5901;DHT22;2976;49.764;9.796;2023-03-23T11:58:10;14.60;99.90
5901;DHT22;2976;49.764;9.796;2023-03-23T12:00:42;14.50;99.90
5901;DHT22;2976;49.764;9.796;2023-03-23T12:03:35;14.60;99.90
5901;DHT22;2976;49.764;9.796;2023-03-23T12:06:10;14.30;99.90
5901;DHT22;2976;49.764;9.796;2023-03-23T12:25:36;13.70;99.90
5901;DHT22;2976;49.764;9.796;2023-03-23T12:40:16;13.50;99.90
5901;DHT22;2976;49.764;9.796;2023-03-23T12:43:11;13.80;99.90
5901;DHT22;2976;49.764;9.796;2023-03-23T12:48:48;14.50;99.90
5901;DHT22;2976;49.764;9.796;2023-03-23T12:51:34;14.70;99.90
5901;DHT22;2976;49.764;9.796;2023-03-23T12:54:16;14.70;99.90
5901;DHT22;2976;49.764;9.796;2023-03-23T12:56:53;14.70;99.90
5901;DHT22;2976;49.764;9.796;2023-03-23T12:59:48;14.80;99.90
5901;DHT22;2976;49.764;9.796;2023-03-23T13:02:28;14.70;99.90
5901;DHT22;2976;49.764;9.796;2023-03-23T13:05:02;14.80;99.90
5901;DHT22;2976;49.764;9.796;2023-03-23T13:07:34;14.90;99.90
5901;DHT22;2976;49.764;9.796;2023-03-23T13:10:12;14.80;99.90
5901;DHT22;2976;49.764;9.796;2023-03-23T13:12:41;14.90;99.90
5901;DHT22;2976;49.764;9.796;2023-03-23T13:18:29;14.90;99.90
5901;DHT22;2976;49.764;9.796;2023-03-23T13:21:13;15.00;99.90
5901;DHT22;2976;49.764;9.796;2023-03-23T13:23:57;14.90;99.90
5901;DHT22;2976;49.764;9.796;2023-03-23T13:26:25;14.80;99.90
5901;DHT22;2976;49.764;9.796;2023-03-23T13:31:34;15.30;99.90
5901;DHT22;2976;49.764;9.796;2023-03-23T13:34:04;15.30;99.90
5901;DHT22;2976;49.764;9.796;2023-03-23T13:36:36;15.10;99.90
5901;DHT22;2976;49.764;9.796;2023-03-23T13:39:04;15.20;99.90
5901;DHT22;2976;49.764;9.796;2023-03-23T13:41:33;15.10;99.90
5901;DHT22;2976;49.764;9.796;2023-03-23T13:44:17;15.00;99.90
5901;DHT22;2976;49.764;9.796;2023-03-23T13:46:57;15.00;99.90
5901;DHT22;2976;49.764;9.796;2023-03-23T13:49:24;15.00;99.90
5901;DHT22;2976;49.764;9.796;2023-03-23T13:52:05;15.00;99.90
5901;DHT22;2976;49.764;9.796;2023-03-23T13:57:25;14.90;99.90
5901;DHT22;2976;49.764;9.796;2023-03-23T13:59:59;14.70;99.90
5901;DHT22;2976;49.764;9.796;2023-03-23T14:02:37;14.60;99.90
5901;DHT22;2976;49.764;9.796;2023-03-23T14:08:14;14.30;99.90
5901;DHT22;2976;49.764;9.796;2023-03-23T14:10:49;14.10;99.90
5901;DHT22;2976;49.764;9.796;2023-03-23T14:13:25;14.10;99.90
5901;DHT22;2976;49.764;9.796;2023-03-23T14:16:02;14.10;99.90
5901;DHT22;2976;49.764;9.796;2023-03-23T14:18:37;14.20;99.90
5901;DHT22;2976;49.764;9.796;2023-03-23T14:21:04;14.20;99.90
5901;DHT22;2976;49.764;9.796;2023-03-23T14:23:32;14.20;99.90
5901;DHT22;2976;49.764;9.796;2023-03-23T14:26:05;14.10;99.90
5901;DHT22;2976;49.764;9.796;2023-03-23T14:28:41;14.20;99.90
5901;DHT22;2976;49.764;9.796;2023-03-23T14:31:20;14.20;99.90
5901;DHT22;2976;49.764;9.796;2023-03-23T14:33:47;14.20;99.90
5901;DHT22;2976;49.764;9.796;2023-03-23T14:36:14;14.20;99.90
5901;DHT22;2976;49.764;9.796;2023-03-23T14:38:40;14.20;99.90
5901;DHT22;2976;49.764;9.796;2023-03-23T14:41:06;14.20;99.90
5901;DHT22;2976;49.764;9.796;2023-03-23T14:43:33;14.20;99.90
5901;DHT22;2976;49.764;9.796;2023-03-23T14:46:02;14.20;99.90
5901;DHT22;2976;49.764;9.796;2023-03-23T14:48:30;14.20;99.90
5901;DHT22;2976;49.764;9.796;2023-03-23T14:50:58;14.10;99.90
5901;DHT22;2976;49.764;9.796;2023-03-23T14:53:30;14.10;99.90
5901;DHT22;2976;49.764;9.796;2023-03-23T14:56:00;14.10;99.90
5901;DHT22;2976;49.764;9.796;2023-03-23T14:58:27;14.10;99.90
5901;DHT22;2976;49.764;9.796;2023-03-23T15:00:58;13.90;99.90
5901;DHT22;2976;49.764;9.796;2023-03-23T15:03:25;13.90;99.90
5901;DHT22;2976;49.764;9.796;2023-03-23T15:05:54;13.80;99.90
5901;DHT22;2976;49.764;9.796;2023-03-23T15:08:28;13.70;99.90
5901;DHT22;2976;49.764;9.796;2023-03-23T15:11:07;13.60;99.90
5901;DHT22;2976;49.764;9.796;2023-03-23T15:13:35;13.50;99.90
5901;DHT22;2976;49.764;9.796;2023-03-23T15:16:03;13.40;99.90
5901;DHT22;2976;49.764;9.796;2023-03-23T15:18:33;13.30;99.90
5901;DHT22;2976;49.764;9.796;2023-03-23T15:21:08;13.20;99.90
5901;DHT22;2976;49.764;9.796;2023-03-23T15:23:34;13.30;99.90
5901;DHT22;2976;49.764;9.796;2023-03-23T15:26:12;13.10;99.90
5901;DHT22;2976;49.764;9.796;2023-03-23T15:28:40;13.20;99.90
5901;DHT22;2976;49.764;9.796;2023-03-23T15:31:06;13.10;99.90
5901;DHT22;2976;49.764;9.796;2023-03-23T15:33:39;13.10;99.90
5901;DHT22;2976;49.764;9.796;2023-03-23T15:36:17;13.00;99.90
5901;DHT22;2976;49.764;9.796;2023-03-23T15:38:46;12.80;99.90
5901;DHT22;2976;49.764;9.796;2023-03-23T15:41:26;12.80;99.90
5901;DHT22;2976;49.764;9.796;2023-03-23T15:43:54;12.80;99.90
5901;DHT22;2976;49.764;9.796;2023-03-23T15:46:25;12.90;99.90
5901;DHT22;2976;49.764;9.796;2023-03-23T15:48:52;12.90;99.90
5901;DHT22;2976;49.764;9.796;2023-03-23T15:51:23;13.00;99.90
5901;DHT22;2976;49.764;9.796;2023-03-23T15:53:53;13.10;99.90
5901;DHT22;2976;49.764;9.796;2023-03-23T15:56:19;13.10;99.90
5901;DHT22;2976;49.764;9.796;2023-03-23T15:58:46;13.20;99.90
5901;DHT22;2976;49.764;9.796;2023-03-23T16:01:14;13.20;99.90
5901;DHT22;2976;49.764;9.796;2023-03-23T16:03:50;13.30;99.90
5901;DHT22;2976;49.764;9.796;2023-03-23T16:06:18;13.30;99.90
5901;DHT22;2976;49.764;9.796;2023-03-23T16:08:44;13.30;99.90
5901;DHT22;2976;49.764;9.796;2023-03-23T16:11:12;13.30;99.90
5901;DHT22;2976;49.764;9.796;2023-03-23T16:13:38;13.30;99.90
5901;DHT22;2976;49.764;9.796;2023-03-23T16:16:05;13.30;99.90
5901;DHT22;2976;49.764;9.796;2023-03-23T16:18:32;13.30;99.90
5901;DHT22;2976;49.764;9.796;2023-03-23T16:20:58;13.30;99.90
5901;DHT22;2976;49.764;9.796;2023-03-23T16:23:25;13.30;99.90
5901;DHT22;2976;49.764;9.796;2023-03-23T16:25:51;13.30;99.90
5901;DHT22;2976;49.764;9.796;2023-03-23T16:28:17;13.30;99.90
5901;DHT22;2976;49.764;9.796;2023-03-23T16:30:43;13.30;99.90
5901;DHT22;2976;49.764;9.796;2023-03-23T16:33:08;13.30;99.90
5901;DHT22;2976;49.764;9.796;2023-03-23T16:35:35;13.30;99.90
5901;DHT22;2976;49.764;9.796;2023-03-23T16:38:01;13.30;99.90
5901;DHT22;2976;49.764;9.796;2023-03-23T16:40:27;13.20;99.90
5901;DHT22;2976;49.764;9.796;2023-03-23T16:42:53;13.10;99.90
5901;DHT22;2976;49.764;9.796;2023-03-23T16:45:19;13.20;99.90
5901;DHT22;2976;49.764;9.796;2023-03-23T16:47:45;13.20;99.90
5901;DHT22;2976;49.764;9.796;2023-03-23T16:50:14;13.10;99.90
5901;DHT22;2976;49.764;9.796;2023-03-23T16:52:42;13.10;99.90
5901;DHT22;2976;49.764;9.796;2023-03-23T16:55:09;13.10;99.90
5901;DHT22;2976;49.764;9.796;2023-03-23T16:57:35;13.20;99.90
5901;DHT22;2976;49.764;9.796;2023-03-23T17:00:05;13.20;99.90
5901;DHT22;2976;49.764;9.796;2023-03-23T17:02:31;13.10;99.90
5901;DHT22;2976;49.764;9.796;2023-03-23T17:04:56;13.00;99.90
5901;DHT22;2976;49.764;9.796;2023-03-23T17:07:22;13.00;99.90
5901;DHT22;2976;49.764;9.796;2023-03-23T17:09:48;12.90;99.90
5901;DHT22;2976;49.764;9.796;2023-03-23T17:12:13;12.90;99.90
5901;DHT22;2976;49.764;9.796;2023-03-23T17:14:39;13.00;99.90
5901;DHT22;2976;49.764;9.796;2023-03-23T17:17:05;12.90;99.90
5901;DHT22;2976;49.764;9.796;2023-03-23T17:19:30;12.90;99.90
5901;DHT22;2976;49.764;9.796;2023-03-23T17:21:56;12.80;99.90
5901;DHT22;2976;49.764;9.796;2023-03-23T17:24:21;12.80;99.90
5901;DHT22;2976;49.764;9.796;2023-03-23T17:26:47;12.70;99.90
5901;DHT22;2976;49.764;9.796;2023-03-23T17:29:12;12.60;99.90
5901;DHT22;2976;49.764;9.796;2023-03-23T17:31:38;12.60;99.90
5901;DHT22;2976;49.764;9.796;2023-03-23T17:34:05;12.60;99.90
5901;DHT22;2976;49.764;9.796;2023-03-23T17:36:31;12.70;99.90